Time;durP1;ratioP1;P1;durP2;ratioP2;P2;SDS_P1;SDS_P2;PMS_P1;PMS_P2;Temp;Humidity;BMP_temperature;BMP_pressure;BME280_temperature;BME280_humidity;BME280_pressure;Samples;Min_cycle;Max_cycle;Signal;HPM_P1;HPM_P2
2022/04/20 00:01:48;;;;;;;3.20;2.90;;;9.80;1.00;;;;;;4937154;29;20258;-58
2022/04/20 00:04:16;;;;;;;3.20;2.83;;;9.80;1.00;;;;;;4936868;29;20668;-58
2022/04/20 00:06:43;;;;;;;5.57;3.70;;;9.70;1.00;;;;;;4936908;29;20561;-58
2022/04/20 00:09:10;;;;;;;3.67;3.20;;;9.70;1.00;;;;;;4936789;29;20200;-58
2022/04/20 00:11:37;;;;;;;3.77;3.03;;;9.60;1.00;;;;;;4936924;29;20212;-58
2022/04/20 00:14:04;;;;;;;4.67;3.13;;;9.60;1.00;;;;;;4936807;29;20200;-58
2022/04/20 00:16:31;;;;;;;3.83;3.17;;;9.50;1.00;;;;;;4936767;29;20219;-58
2022/04/20 00:18:58;;;;;;;3.60;3.10;;;9.50;1.00;;;;;;4936767;29;20197;-58
2022/04/20 00:21:27;;;;;;;4.33;2.57;;;9.40;1.00;;;;;;4936441;29;20208;-58
2022/04/20 00:23:54;;;;;;;4.37;3.20;;;9.40;1.00;;;;;;4936768;29;20209;-58
2022/04/20 00:26:21;;;;;;;3.10;2.80;;;9.40;1.00;;;;;;4936572;29;20208;-59
2022/04/20 00:28:48;;;;;;;4.47;2.90;;;9.30;1.00;;;;;;4935538;29;20685;-58
2022/04/20 00:31:15;;;;;;;3.17;2.93;;;9.30;1.00;;;;;;4936379;29;20247;-58
2022/04/20 00:33:42;;;;;;;3.20;2.90;;;9.30;1.00;;;;;;4936593;29;20207;-59
2022/04/20 00:36:09;;;;;;;3.70;2.80;;;9.30;1.00;;;;;;4936380;29;20243;-58
2022/04/20 00:38:37;;;;;;;3.53;2.90;;;9.30;1.00;;;;;;4935980;29;20248;-59
2022/04/20 00:41:04;;;;;;;3.17;2.90;;;9.20;1.00;;;;;;4937283;29;20200;-58
2022/04/20 00:43:32;;;;;;;5.20;2.70;;;9.20;1.00;;;;;;4936449;29;20335;-58
2022/04/20 00:46:01;;;;;;;2.60;2.40;;;9.20;1.00;;;;;;4936289;29;20207;-58
2022/04/20 00:48:28;;;;;;;2.87;2.57;;;9.20;1.00;;;;;;4935830;29;20231;-58
2022/04/20 00:50:55;;;;;;;3.67;2.60;;;9.20;1.00;;;;;;4936010;29;20210;-58
2022/04/20 00:53:22;;;;;;;2.83;2.60;;;9.20;1.00;;;;;;4936130;29;20195;-59
2022/04/20 00:55:50;;;;;;;2.67;2.47;;;9.10;1.00;;;;;;4936043;29;20559;-58
2022/04/20 00:58:17;;;;;;;2.70;2.50;;;9.10;1.00;;;;;;4935753;29;20584;-58
2022/04/20 01:00:44;;;;;;;2.57;2.37;;;9.00;1.00;;;;;;4935854;29;20215;-58
2022/04/20 01:03:11;;;;;;;2.70;2.50;;;9.00;1.00;;;;;;4935736;29;20202;-58
2022/04/20 01:05:38;;;;;;;2.60;2.40;;;9.00;1.00;;;;;;4935842;29;20215;-58
2022/04/20 01:08:06;;;;;;;2.50;2.30;;;8.90;1.00;;;;;;4935441;29;20199;-58
2022/04/20 01:10:33;;;;;;;3.80;2.50;;;8.90;1.00;;;;;;4935744;29;20719;-58
2022/04/20 01:13:01;;;;;;;3.17;2.73;;;8.90;1.00;;;;;;4935820;29;20262;-57
2022/04/20 01:15:28;;;;;;;3.20;2.50;;;8.90;1.00;;;;;;4935929;29;20211;-57
2022/04/20 01:17:55;;;;;;;3.10;2.80;;;8.90;1.00;;;;;;4935618;29;20212;-58
2022/04/20 01:20:22;;;;;;;2.67;2.47;;;8.90;1.00;;;;;;4935446;29;20719;-58
2022/04/20 01:22:51;;;;;;;3.60;2.70;;;8.90;1.00;;;;;;4935635;29;20560;-57
2022/04/20 01:25:18;;;;;;;5.00;2.70;;;8.80;1.00;;;;;;4935591;29;20206;-58
2022/04/20 01:27:45;;;;;;;3.23;2.60;;;8.80;1.00;;;;;;4935219;29;20210;-58
2022/04/20 01:30:12;;;;;;;2.93;2.73;;;8.80;1.00;;;;;;4935187;29;20218;-60
2022/04/20 01:32:39;;;;;;;2.70;2.50;;;8.80;1.00;;;;;;4935527;29;20210;-60
2022/04/20 01:35:07;;;;;;;3.97;2.83;;;8.70;1.00;;;;;;4944033;29;20199;-60
2022/04/20 01:37:34;;;;;;;2.70;2.50;;;8.70;1.00;;;;;;4944324;28;20230;-61
2022/04/20 01:40:02;;;;;;;3.50;2.63;;;8.70;1.00;;;;;;4942760;28;20278;-61
2022/04/20 01:42:29;;;;;;;6.30;2.70;;;8.70;1.00;;;;;;4944828;29;20206;-60
2022/04/20 01:44:56;;;;;;;3.80;2.60;;;8.70;1.00;;;;;;4943212;29;20226;-60
2022/04/20 01:47:26;;;;;;;2.97;2.67;;;8.60;1.00;;;;;;4939253;28;20207;-60
2022/04/20 01:49:53;;;;;;;3.80;2.33;;;8.70;1.00;;;;;;4943631;28;20268;-60
2022/04/20 01:52:20;;;;;;;3.13;2.53;;;8.60;1.00;;;;;;4951089;29;20214;-61
2022/04/20 01:54:47;;;;;;;3.00;2.70;;;8.60;1.00;;;;;;4948957;28;20202;-61
2022/04/20 01:57:15;;;;;;;3.60;2.43;;;8.60;1.00;;;;;;4941203;28;20218;-61
2022/04/20 01:59:42;;;;;;;3.00;2.70;;;8.60;1.00;;;;;;4954387;28;20205;-61
2022/04/20 02:04:54;;;;;;;2.60;2.33;;;8.50;1.00;;;;;;4954374;29;20231;-60
2022/04/20 02:07:21;;;;;;;3.07;2.57;;;8.50;1.00;;;;;;4954378;28;20206;-60
2022/04/20 02:09:48;;;;;;;2.77;2.57;;;8.50;1.00;;;;;;4954181;28;20195;-61
2022/04/20 02:12:16;;;;;;;4.73;2.70;;;8.50;1.00;;;;;;4954328;28;20609;-60
2022/04/20 02:14:43;;;;;;;2.60;2.40;;;8.50;1.00;;;;;;4953966;28;20301;-60
2022/04/20 02:17:10;;;;;;;2.77;2.50;;;8.50;1.00;;;;;;4954188;28;20222;-60
2022/04/20 02:19:37;;;;;;;2.90;2.60;;;8.40;1.00;;;;;;4954501;28;20204;-60
2022/04/20 02:22:05;;;;;;;3.00;2.43;;;8.50;1.00;;;;;;4954187;28;20210;-60
2022/04/20 02:24:32;;;;;;;2.93;2.67;;;8.40;1.00;;;;;;4954194;28;20234;-60
2022/04/20 02:26:58;;;;;;;3.83;2.80;;;8.40;1.00;;;;;;4954163;28;20546;-60
2022/04/20 02:29:27;;;;;;;7.83;3.03;;;8.30;1.00;;;;;;4953767;28;20211;-60
2022/04/20 02:31:54;;;;;;;3.63;2.70;;;8.40;1.00;;;;;;4953769;28;20688;-60
2022/04/20 02:34:21;;;;;;;3.17;2.87;;;8.40;1.00;;;;;;4954094;28;20203;-60
2022/04/20 02:36:47;;;;;;;2.97;2.67;;;8.30;1.00;;;;;;4953986;28;20222;-60
2022/04/20 02:39:14;;;;;;;3.07;2.80;;;8.30;1.00;;;;;;4953736;28;20207;-60
2022/04/20 02:41:42;;;;;;;3.67;2.93;;;8.30;1.00;;;;;;4954089;28;20562;-60
2022/04/20 02:44:09;;;;;;;3.27;2.80;;;8.30;1.00;;;;;;4953561;28;20238;-60
2022/04/20 02:46:38;;;;;;;3.97;3.40;;;8.20;1.00;;;;;;4954022;28;20606;-60
2022/04/20 02:49:05;;;;;;;3.07;2.83;;;8.10;1.00;;;;;;4954025;28;20197;-60
2022/04/20 02:51:32;;;;;;;3.03;2.63;;;8.10;1.00;;;;;;4953866;28;20211;-60
2022/04/20 02:53:59;;;;;;;3.63;2.80;;;8.00;1.00;;;;;;4957170;28;20540;-60
2022/04/20 02:56:26;;;;;;;4.90;3.13;;;8.00;1.00;;;;;;4957365;28;20196;-61
2022/04/20 02:58:52;;;;;;;3.90;3.17;;;7.90;1.00;;;;;;4956890;28;20700;-60
2022/04/20 03:01:19;;;;;;;3.83;2.60;;;7.90;1.00;;;;;;4957295;28;20201;-60
2022/04/20 03:03:48;;;;;;;3.37;2.77;;;7.80;1.00;;;;;;4957304;28;20209;-60
2022/04/20 03:06:15;;;;;;;3.20;2.83;;;7.80;1.00;;;;;;4957137;28;20212;-60
2022/04/20 03:08:42;;;;;;;4.10;2.70;;;7.80;1.00;;;;;;4956785;28;20256;-60
2022/04/20 03:11:09;;;;;;;4.13;2.97;;;7.70;1.00;;;;;;4957187;28;20202;-60
2022/04/20 03:13:36;;;;;;;3.70;2.80;;;7.70;1.00;;;;;;4956769;28;20213;-60
2022/04/20 03:16:03;;;;;;;4.60;3.30;;;7.70;1.00;;;;;;4957183;28;20206;-61
2022/04/20 03:18:32;;;;;;;3.60;3.13;;;7.70;1.00;;;;;;4956623;28;20213;-60
2022/04/20 03:21:01;;;;;;;3.83;3.17;;;7.70;1.00;;;;;;4956998;28;20210;-60
2022/04/20 03:23:28;;;;;;;3.00;2.70;;;7.70;1.00;;;;;;4956657;28;20231;-60
2022/04/20 03:25:55;;;;;;;5.17;3.13;;;7.70;1.00;;;;;;4956863;28;20277;-60
2022/04/20 03:28:23;;;;;;;4.53;2.93;;;7.60;1.00;;;;;;4956845;28;20209;-60
2022/04/20 03:30:50;;;;;;;4.20;3.00;;;7.60;1.00;;;;;;4956833;28;20201;-60
2022/04/20 03:33:18;;;;;;;3.00;2.80;;;7.50;1.00;;;;;;4956765;28;20216;-60
2022/04/20 03:35:45;;;;;;;4.20;3.10;;;7.50;1.00;;;;;;4956702;28;20210;-60
2022/04/20 03:38:13;;;;;;;4.37;3.30;;;7.50;1.00;;;;;;4957459;28;20214;-62
2022/04/20 03:40:41;;;;;;;5.60;3.00;;;7.50;1.00;;;;;;4956554;28;20750;-60
2022/04/20 03:43:08;;;;;;;3.33;3.03;;;7.50;1.00;;;;;;4956409;28;20568;-60
2022/04/20 03:45:35;;;;;;;3.87;3.20;;;7.40;1.00;;;;;;4956244;28;20236;-60
2022/04/20 03:48:02;;;;;;;3.30;3.00;;;7.40;1.00;;;;;;4956590;28;20200;-60
2022/04/20 03:50:30;;;;;;;3.57;3.00;;;7.50;1.00;;;;;;4956489;28;20205;-60
2022/04/20 03:52:57;;;;;;;3.00;2.70;;;7.40;1.00;;;;;;4956392;28;20231;-60
2022/04/20 03:55:25;;;;;;;4.40;3.10;;;7.40;1.00;;;;;;4956542;28;20542;-60
2022/04/20 03:57:52;;;;;;;3.23;2.93;;;7.40;1.00;;;;;;4956240;28;20227;-60
2022/04/20 04:00:20;;;;;;;4.47;2.80;;;7.40;1.00;;;;;;4956217;28;20193;-60
2022/04/20 04:02:47;;;;;;;3.60;3.10;;;7.40;1.00;;;;;;4956382;28;20204;-60
2022/04/20 04:05:14;;;;;;;4.23;3.13;;;7.40;1.00;;;;;;4955905;28;20662;-59
2022/04/20 04:07:41;;;;;;;3.20;2.90;;;7.40;3.60;;;;;;4956007;28;20197;-60
2022/04/20 04:10:09;;;;;;;4.07;2.90;;;7.40;3.70;;;;;;4956130;28;20195;-60
2022/04/20 04:12:37;;;;;;;3.37;3.00;;;7.40;5.40;;;;;;4955751;28;20208;-60
2022/04/20 04:15:07;;;;;;;4.83;3.30;;;7.30;6.60;;;;;;4956073;28;20231;-60
2022/04/20 04:17:34;;;;;;;3.50;3.20;;;7.30;8.10;;;;;;4955872;28;20221;-60
2022/04/20 04:20:01;;;;;;;3.73;3.20;;;7.30;10.50;;;;;;4955969;28;20211;-60
2022/04/20 04:22:28;;;;;;;3.63;3.13;;;7.30;12.10;;;;;;4955546;28;20208;-60
2022/04/20 04:24:56;;;;;;;3.50;3.20;;;7.20;13.20;;;;;;4956088;28;20204;-61
2022/04/20 04:27:23;;;;;;;4.43;3.40;;;7.20;15.20;;;;;;4955494;28;20211;-60
2022/04/20 04:29:52;;;;;;;5.07;3.30;;;7.20;17.10;;;;;;4955379;28;20213;-61
2022/04/20 04:32:19;;;;;;;4.00;3.30;;;7.20;18.80;;;;;;4955458;28;20200;-60
2022/04/20 04:34:45;;;;;;;5.37;3.57;;;7.20;20.10;;;;;;4955846;28;20217;-60
2022/04/20 04:37:14;;;;;;;3.70;3.23;;;7.20;22.50;;;;;;4955752;28;20204;-60
2022/04/20 04:39:41;;;;;;;4.00;3.27;;;7.20;23.80;;;;;;4955221;28;20684;-60
2022/04/20 04:42:09;;;;;;;4.50;3.20;;;7.20;24.10;;;;;;4955208;28;20670;-60
2022/04/20 04:44:36;;;;;;;6.03;3.30;;;7.20;24.50;;;;;;4955097;28;20238;-60
2022/04/20 04:49:50;;;;;;;5.13;3.77;;;7.20;25.20;;;;;;4955146;29;20686;-60
2022/04/20 04:52:17;;;;;;;4.17;3.77;;;7.10;27.20;;;;;;4955351;28;20252;-60
2022/04/20 04:54:44;;;;;;;4.63;3.67;;;7.20;27.30;;;;;;4955272;28;20197;-60
2022/04/20 04:57:12;;;;;;;3.87;3.23;;;7.20;26.20;;;;;;4955334;28;20218;-61
2022/04/20 04:59:40;;;;;;;3.87;3.50;;;7.20;24.50;;;;;;4955111;28;20282;-60
2022/04/20 05:02:10;;;;;;;6.20;3.70;;;7.20;22.30;;;;;;4954886;28;20208;-61
2022/04/20 05:04:38;;;;;;;5.83;3.57;;;7.30;21.10;;;;;;4955155;28;20307;-59
2022/04/20 05:07:05;;;;;;;3.83;3.50;;;7.30;18.70;;;;;;4955276;28;20203;-59
2022/04/20 05:09:32;;;;;;;4.83;3.33;;;7.30;18.30;;;;;;4954709;28;20210;-60
2022/04/20 05:12:01;;;;;;;5.37;3.23;;;7.40;19.10;;;;;;4954866;28;20299;-60
2022/04/20 05:14:28;;;;;;;4.87;3.00;;;7.50;20.90;;;;;;4954587;28;20207;-60
2022/04/20 05:16:58;;;;;;;4.63;3.50;;;7.70;17.80;;;;;;4954148;28;20209;-61
2022/04/20 05:19:27;;;;;;;8.73;3.50;;;7.90;11.70;;;;;;4954485;28;20264;-60
2022/04/20 05:21:54;;;;;;;20.30;5.27;;;8.00;5.50;;;;;;4954738;28;20214;-60
2022/04/20 05:24:21;;;;;;;6.60;3.90;;;8.00;5.90;;;;;;4954731;28;20213;-60
2022/04/20 05:26:48;;;;;;;5.27;3.83;;;8.00;3.30;;;;;;4954927;28;20241;-60
2022/04/20 05:29:15;;;;;;;4.40;3.40;;;8.00;1.80;;;;;;4954533;28;20205;-60
2022/04/20 05:31:42;;;;;;;4.13;3.57;;;8.10;1.50;;;;;;4954965;28;20209;-60
2022/04/20 05:34:09;;;;;;;5.67;3.63;;;8.10;1.30;;;;;;4954749;28;20198;-60
2022/04/20 05:42:06;;;;;;;6.73;3.83;;;8.30;1.00;;;;;;4954266;29;20238;-61
2022/04/20 05:44:33;;;;;;;4.40;3.77;;;8.50;1.00;;;;;;4954311;28;20235;-60
2022/04/20 05:47:01;;;;;;;4.53;3.53;;;9.00;1.00;;;;;;4954625;28;20202;-61
2022/04/20 05:49:27;;;;;;;4.63;4.00;;;9.80;1.00;;;;;;4954355;28;20203;-60
2022/04/20 05:51:57;;;;;;;4.50;3.40;;;10.50;1.00;;;;;;4954193;29;20207;-61
2022/04/20 05:54:24;;;;;;;4.83;4.00;;;10.90;1.00;;;;;;4954422;28;20239;-61
2022/04/20 05:56:51;;;;;;;4.83;3.80;;;11.40;1.00;;;;;;4949963;28;20213;-61
2022/04/20 05:59:17;;;;;;;5.87;4.00;;;11.50;1.00;;;;;;4947044;29;20222;-62
2022/04/20 06:01:45;;;;;;;8.17;4.10;;;11.80;1.00;;;;;;4951965;29;20199;-61
2022/04/20 06:04:11;;;;;;;5.13;4.03;;;12.20;1.00;;;;;;4954535;28;20198;-60
2022/04/20 06:06:38;;;;;;;5.80;4.30;;;12.60;1.00;;;;;;4954267;28;20669;-60
2022/04/20 06:09:07;;;;;;;6.63;4.20;;;12.50;1.00;;;;;;4954339;28;20195;-61
2022/04/20 06:11:34;;;;;;;5.53;4.10;;;12.60;1.00;;;;;;4954220;28;20229;-61
2022/04/20 06:14:00;;;;;;;7.83;4.00;;;12.80;1.00;;;;;;4954404;28;20195;-61
2022/04/20 06:16:28;;;;;;;4.40;3.77;;;13.10;1.00;;;;;;4954273;28;20191;-61
2022/04/20 06:18:57;;;;;;;7.63;4.40;;;13.10;1.00;;;;;;4953916;28;20227;-61
2022/04/20 06:21:24;;;;;;;5.20;4.30;;;13.40;1.00;;;;;;4953914;28;20570;-61
2022/04/20 06:23:51;;;;;;;9.37;4.87;;;13.80;1.00;;;;;;4953854;28;20203;-61
2022/04/20 06:26:19;;;;;;;4.57;3.87;;;14.00;1.00;;;;;;4953903;28;20211;-62
2022/04/20 06:28:46;;;;;;;6.17;4.07;;;14.40;1.00;;;;;;4956850;28;20200;-61
2022/04/20 06:31:13;;;;;;;5.33;3.87;;;14.90;1.00;;;;;;4958048;28;20203;-61
2022/04/20 06:33:40;;;;;;;5.07;3.80;;;15.30;1.00;;;;;;4958083;28;20202;-62
2022/04/20 06:36:07;;;;;;;4.20;3.80;;;15.30;1.00;;;;;;4957834;28;20199;-62
2022/04/20 06:38:34;;;;;;;4.77;3.67;;;15.40;1.00;;;;;;4957347;29;20234;-63
2022/04/20 06:41:01;;;;;;;5.97;3.60;;;15.30;1.00;;;;;;4957754;28;20207;-62
2022/04/20 06:43:29;;;;;;;4.60;3.40;;;15.40;1.00;;;;;;4957624;28;20210;-62
2022/04/20 06:45:57;;;;;;;5.50;3.60;;;16.00;1.00;;;;;;4957668;28;20198;-62
2022/04/20 06:48:25;;;;;;;4.30;3.90;;;15.40;1.00;;;;;;4957554;28;20206;-62
2022/04/20 06:50:52;;;;;;;4.90;3.80;;;15.40;1.00;;;;;;4957571;28;20206;-62
2022/04/20 06:58:50;;;;;;;5.13;3.13;;;15.40;1.00;;;;;;4945787;29;20222;-62
2022/04/20 07:01:17;;;;;;;4.03;3.10;;;15.40;1.00;;;;;;4937238;29;20696;-62
2022/04/20 07:03:44;;;;;;;8.10;3.60;;;15.50;1.00;;;;;;4937417;29;20214;-62
2022/04/20 07:06:11;;;;;;;5.50;3.30;;;15.70;1.00;;;;;;4938092;29;20553;-61
2022/04/20 07:08:39;;;;;;;5.40;3.10;;;16.30;1.00;;;;;;4938074;29;20211;-62
2022/04/20 07:11:06;;;;;;;10.80;3.40;;;16.30;1.00;;;;;;4937749;29;20211;-62
2022/04/20 07:13:33;;;;;;;4.80;3.33;;;16.50;1.00;;;;;;4937752;29;20208;-62
2022/04/20 07:16:01;;;;;;;4.17;3.27;;;16.30;1.00;;;;;;4937998;29;20234;-62
2022/04/20 07:18:28;;;;;;;6.13;3.50;;;17.10;1.00;;;;;;4937814;29;20219;-62
2022/04/20 07:20:55;;;;;;;3.37;3.07;;;17.30;1.00;;;;;;4937803;29;20200;-62
2022/04/20 07:23:22;;;;;;;29.90;4.67;;;17.50;1.00;;;;;;4937826;29;20218;-62
2022/04/20 07:25:49;;;;;;;4.88;3.17;;;17.20;1.00;;;;;;4937700;29;20203;-62
2022/04/20 07:28:16;;;;;;;3.53;3.22;;;17.90;1.00;;;;;;4937435;29;20276;-62
2022/04/20 07:30:43;;;;;;;3.63;3.33;;;18.00;1.00;;;;;;4937552;29;20211;-62
2022/04/20 07:33:14;;;;;;;3.40;3.10;;;18.20;1.00;;;;;;4937545;29;20218;-62
2022/04/20 07:35:43;;;;;;;10.63;3.33;;;18.30;1.00;;;;;;4937521;29;20195;-62
2022/04/20 07:38:10;;;;;;;3.45;2.88;;;17.90;1.00;;;;;;4936575;29;20511;-62
2022/04/20 07:40:37;;;;;;;3.28;2.97;;;17.70;1.00;;;;;;4937135;29;20208;-62
2022/04/20 07:43:04;;;;;;;3.92;3.25;;;18.20;1.00;;;;;;4937199;29;20199;-62
2022/04/20 07:45:32;;;;;;;5.10;3.30;;;18.80;1.00;;;;;;4936714;29;20239;-62
2022/04/20 07:47:59;;;;;;;4.15;3.13;;;18.80;1.00;;;;;;4936742;29;20267;-62
2022/04/20 07:50:27;;;;;;;5.10;3.55;;;18.70;1.00;;;;;;4936707;29;20203;-62
2022/04/20 07:52:56;;;;;;;3.90;3.50;;;18.90;1.00;;;;;;4936949;29;20230;-63
2022/04/20 07:55:25;;;;;;;4.88;3.30;;;18.80;1.00;;;;;;4936885;29;20290;-63
2022/04/20 07:57:53;;;;;;;3.60;3.30;;;19.20;1.00;;;;;;4936828;29;20199;-62
2022/04/20 08:00:22;;;;;;;5.53;2.92;;;19.60;1.00;;;;;;4936395;29;20286;-62
2022/04/20 08:02:49;;;;;;;5.45;3.45;;;19.70;1.00;;;;;;4936812;29;20302;-63
2022/04/20 08:05:19;;;;;;;4.82;3.22;;;20.00;1.00;;;;;;4936722;29;20560;-62
2022/04/20 08:07:47;;;;;;;4.47;3.17;;;20.30;1.00;;;;;;4936660;29;20282;-63
2022/04/20 08:10:15;;;;;;;3.65;2.80;;;20.20;1.00;;;;;;4936401;29;20677;-63
2022/04/20 08:12:43;;;;;;;3.28;3.08;;;20.00;1.00;;;;;;4936649;29;20618;-63
2022/04/20 08:15:11;;;;;;;3.50;3.20;;;19.60;1.00;;;;;;4936233;29;20211;-63
2022/04/20 08:17:38;;;;;;;3.25;2.90;;;20.30;1.00;;;;;;4936208;29;20683;-62
2022/04/20 08:20:07;;;;;;;3.40;3.10;;;20.40;1.00;;;;;;4936433;29;20235;-62
2022/04/20 08:22:39;;;;;;;4.32;2.80;;;20.30;1.00;;;;;;4936362;29;20560;-62
2022/04/20 08:25:09;;;;;;;3.33;3.03;;;20.70;1.00;;;;;;4936481;29;20195;-63
2022/04/20 08:27:36;;;;;;;4.80;3.40;;;20.90;1.00;;;;;;4936396;29;20203;-62
2022/04/20 08:30:04;;;;;;;5.53;3.70;;;21.00;1.00;;;;;;4940967;29;20254;-62
2022/04/20 08:32:31;;;;;;;4.07;3.08;;;20.10;1.00;;;;;;4955043;28;20199;-63
2022/04/20 08:34:58;;;;;;;4.72;3.17;;;20.10;1.00;;;;;;4955372;28;20206;-62
2022/04/20 08:37:26;;;;;;;4.35;3.00;;;20.10;1.00;;;;;;4954903;28;20202;-63
2022/04/20 08:39:53;;;;;;;10.18;4.88;;;20.10;1.00;;;;;;4955171;28;20272;-63
2022/04/20 08:42:22;;;;;;;3.88;3.17;;;19.40;1.00;;;;;;4955277;28;20939;-63
2022/04/20 08:44:50;;;;;;;4.20;2.97;;;19.80;1.00;;;;;;4954696;28;20325;-63
2022/04/20 08:47:21;;;;;;;4.43;3.17;;;20.60;1.00;;;;;;4953523;28;20230;-62
2022/04/20 08:49:50;;;;;;;3.80;3.30;;;20.80;1.00;;;;;;4952142;28;20199;-63
2022/04/20 08:55:03;;;;;;;5.18;3.28;;;20.10;1.00;;;;;;4954994;29;20546;-62
2022/04/20 08:57:33;;;;;;;4.50;2.80;;;20.60;1.00;;;;;;4954942;28;20203;-62
2022/04/20 09:00:00;;;;;;;3.33;2.70;;;21.20;1.00;;;;;;4954718;28;20230;-62
2022/04/20 09:02:28;;;;;;;4.40;2.80;;;21.20;1.00;;;;;;4955018;28;20243;-62
2022/04/20 09:04:55;;;;;;;5.05;3.00;;;20.30;1.00;;;;;;4954608;28;20566;-62
2022/04/20 09:07:22;;;;;;;5.47;2.80;;;20.40;1.00;;;;;;4954597;28;20222;-63
2022/04/20 09:09:50;;;;;;;3.30;3.00;;;20.30;1.00;;;;;;4954854;28;20245;-63
2022/04/20 09:12:18;;;;;;;3.35;3.03;;;20.50;1.00;;;;;;4954694;28;20202;-62
2022/04/20 09:14:50;;;;;;;4.68;2.95;;;21.10;1.00;;;;;;4954742;28;20206;-63
2022/04/20 09:17:18;;;;;;;6.72;2.95;;;21.00;1.00;;;;;;4954348;28;20660;-64
2022/04/20 09:19:46;;;;;;;5.20;3.50;;;21.10;1.00;;;;;;4954813;28;20226;-63
2022/04/20 09:22:23;;;;;;;5.70;3.50;;;20.80;1.00;;;;;;4954408;28;20700;-63
2022/04/20 09:25:06;;;;;;;6.18;3.28;;;20.20;1.00;;;;;;4954487;28;20209;-63
2022/04/20 09:27:35;;;;;;;4.60;3.10;;;20.00;1.00;;;;;;4954237;28;20218;-63
2022/04/20 09:30:07;;;;;;;6.00;3.30;;;20.50;1.00;;;;;;4954400;28;20592;-63
2022/04/20 09:32:36;;;;;;;4.28;3.15;;;20.40;1.00;;;;;;4954595;28;20183;-61
2022/04/20 09:35:06;;;;;;;7.05;3.35;;;20.20;1.00;;;;;;4954143;28;20202;-61
2022/04/20 09:37:34;;;;;;;5.13;3.30;;;19.60;1.00;;;;;;4954435;28;20210;-61
2022/04/20 09:40:04;;;;;;;4.07;3.22;;;19.40;1.00;;;;;;4954422;28;20229;-63
2022/04/20 09:42:31;;;;;;;8.10;3.40;;;20.10;1.00;;;;;;4954227;28;20215;-63
2022/04/20 09:45:01;;;;;;;3.60;3.30;;;20.70;1.00;;;;;;4954002;28;20643;-63
2022/04/20 09:50:21;;;;;;;5.93;3.22;;;21.50;1.00;;;;;;4954326;29;20179;-62
2022/04/20 09:52:49;;;;;;;4.30;2.65;;;21.10;1.00;;;;;;4954280;28;20218;-63
2022/04/20 09:55:26;;;;;;;5.30;3.05;;;21.10;1.00;;;;;;4954220;28;20214;-63
2022/04/20 09:57:53;;;;;;;4.05;2.83;;;21.60;1.00;;;;;;4953935;28;20186;-63
2022/04/20 10:00:23;;;;;;;3.55;3.25;;;21.70;1.00;;;;;;4954136;28;20221;-63
2022/04/20 10:02:53;;;;;;;6.35;3.10;;;21.10;1.00;;;;;;4957238;28;20205;-62
2022/04/20 10:05:22;;;;;;;3.58;3.13;;;21.00;1.00;;;;;;4958112;28;20195;-62
2022/04/20 10:07:48;;;;;;;7.32;3.45;;;21.10;1.00;;;;;;4957752;28;20653;-62
2022/04/20 10:10:15;;;;;;;2.95;2.47;;;21.30;1.00;;;;;;4958022;28;20246;-62
2022/04/20 10:12:44;;;;;;;2.80;2.60;;;20.70;1.00;;;;;;4957960;28;20206;-63
2022/04/20 10:17:58;;;;;;;3.53;2.90;;;20.80;1.00;;;;;;4957906;29;20183;-63
2022/04/20 10:20:27;;;;;;;3.35;2.80;;;21.00;1.00;;;;;;4957363;28;20218;-63
2022/04/20 10:22:55;;;;;;;3.50;3.20;;;21.90;1.00;;;;;;4957560;28;20245;-63
2022/04/20 10:25:22;;;;;;;3.60;3.30;;;22.20;1.00;;;;;;4957592;28;20207;-63
2022/04/20 10:28:11;;;;;;;4.28;2.85;;;22.00;1.00;;;;;;4957738;28;20568;-62
2022/04/20 10:31:00;;;;;;;5.57;3.55;;;22.50;1.00;;;;;;4957497;28;20195;-63
2022/04/20 10:33:31;;;;;;;5.88;3.33;;;22.30;1.00;;;;;;4957686;28;20191;-62
2022/04/20 10:36:00;;;;;;;4.28;3.22;;;22.20;1.00;;;;;;4957311;28;20194;-63
2022/04/20 10:38:30;;;;;;;5.07;3.30;;;22.00;1.00;;;;;;4957009;28;20560;-62
2022/04/20 10:40:59;;;;;;;3.72;3.42;;;21.60;1.00;;;;;;4956972;28;20781;-63
2022/04/20 10:43:27;;;;;;;5.93;3.20;;;21.50;1.00;;;;;;4956544;28;20210;-62
2022/04/20 10:46:08;;;;;;;5.28;3.53;;;22.10;1.00;;;;;;4956773;28;20243;-60
2022/04/20 10:48:58;;;;;;;4.65;3.88;;;22.20;1.00;;;;;;4957170;28;20202;-61
2022/04/20 10:51:37;;;;;;;4.53;3.88;;;21.90;1.00;;;;;;4956942;28;20630;-60
2022/04/20 10:54:27;;;;;;;5.85;3.67;;;21.30;1.00;;;;;;4956978;28;20634;-62
2022/04/20 10:57:13;;;;;;;3.88;3.30;;;20.80;1.00;;;;;;4957173;28;20203;-62
2022/04/20 10:59:41;;;;;;;4.05;3.65;;;21.20;1.00;;;;;;4956963;28;20225;-62
2022/04/20 11:02:10;;;;;;;10.40;4.53;;;21.90;1.00;;;;;;4957123;28;20230;-62
2022/04/20 11:04:41;;;;;;;4.85;3.83;;;21.40;1.00;;;;;;4957252;28;20262;-62
2022/04/20 11:07:23;;;;;;;6.28;3.50;;;22.00;1.00;;;;;;4957072;28;20218;-62
2022/04/20 11:10:11;;;;;;;4.35;3.20;;;21.40;1.00;;;;;;4956759;28;20603;-63
2022/04/20 11:19:05;;;;;;;25.83;6.28;;;21.70;1.00;;;;;;4956743;29;20187;-63
2022/04/20 11:21:33;;;;;;;4.10;3.70;;;21.60;1.00;;;;;;4957052;28;20202;-63
2022/04/20 11:24:03;;;;;;;5.00;3.88;;;22.00;1.00;;;;;;4956756;28;20262;-64
2022/04/20 11:26:34;;;;;;;4.70;3.70;;;22.10;1.00;;;;;;4956645;28;20277;-65
2022/04/20 11:29:03;;;;;;;6.70;3.50;;;21.90;1.00;;;;;;4956666;28;20191;-63
2022/04/20 11:31:38;;;;;;;10.70;3.30;;;22.10;1.00;;;;;;4956723;28;20541;-63
2022/04/20 11:34:07;;;;;;;7.93;3.78;;;22.30;1.00;;;;;;4956399;28;20217;-63
2022/04/20 11:36:34;;;;;;;5.40;3.53;;;22.20;1.00;;;;;;4956263;28;20203;-63
2022/04/20 11:39:02;;;;;;;6.38;4.00;;;22.10;1.00;;;;;;4956321;28;20293;-64
2022/04/20 11:41:29;;;;;;;4.85;3.38;;;22.00;1.00;;;;;;4956505;28;20223;-64
2022/04/20 11:43:58;;;;;;;3.42;3.13;;;21.90;1.00;;;;;;4956282;28;20237;-65
2022/04/20 11:46:25;;;;;;;12.00;3.58;;;22.70;1.00;;;;;;4956152;28;20250;-64
2022/04/20 11:48:54;;;;;;;6.53;3.28;;;22.90;1.00;;;;;;4955983;28;20207;-65
2022/04/20 11:51:25;;;;;;;4.22;3.30;;;22.30;1.00;;;;;;4955773;28;20646;-64
2022/04/20 11:53:53;;;;;;;3.90;3.28;;;22.30;1.00;;;;;;4955849;28;20194;-65
2022/04/20 11:56:33;;;;;;;5.10;3.42;;;22.40;1.00;;;;;;4956326;28;20203;-66
2022/04/20 11:59:01;;;;;;;9.60;4.35;;;22.80;1.00;;;;;;4955488;28;20772;-65
2022/04/20 12:01:30;;;;;;;4.88;3.53;;;22.90;1.00;;;;;;4956007;28;20252;-64
2022/04/20 12:03:59;;;;;;;6.30;3.92;;;22.60;1.00;;;;;;4956010;28;20214;-63
2022/04/20 12:06:29;;;;;;;4.28;3.70;;;21.90;1.00;;;;;;4956109;28;20234;-63
2022/04/20 12:08:56;;;;;;;3.88;3.58;;;22.70;1.00;;;;;;4956253;28;20199;-64
2022/04/20 12:11:23;;;;;;;3.60;3.30;;;23.00;1.00;;;;;;4955921;28;20198;-65
2022/04/20 12:13:56;;;;;;;3.88;3.55;;;23.20;1.00;;;;;;4955570;28;20199;-65
2022/04/20 12:16:24;;;;;;;4.32;3.78;;;22.70;1.00;;;;;;4956008;28;20543;-62
2022/04/20 12:18:53;;;;;;;4.10;3.63;;;22.40;1.00;;;;;;4955375;28;20207;-62
2022/04/20 12:21:44;;;;;;;3.78;3.03;;;22.30;1.00;;;;;;4955347;28;20257;-62
2022/04/20 12:24:19;;;;;;;3.67;3.25;;;22.10;1.00;;;;;;4955338;28;20625;-62
2022/04/20 12:26:47;;;;;;;4.82;3.08;;;22.30;1.00;;;;;;4955960;28;20191;-62
2022/04/20 12:29:16;;;;;;;3.85;3.50;;;22.30;1.00;;;;;;4955331;28;20218;-62
2022/04/20 12:31:44;;;;;;;3.72;3.28;;;23.20;1.00;;;;;;4955504;28;20201;-62
2022/04/20 12:34:15;;;;;;;7.10;3.80;;;23.00;1.00;;;;;;4955497;28;20199;-62
2022/04/20 12:36:54;;;;;;;5.88;4.00;;;22.20;1.00;;;;;;4955415;28;20187;-61
2022/04/20 12:39:30;;;;;;;5.10;3.60;;;22.10;1.00;;;;;;4955418;28;20186;-62
2022/04/20 12:41:58;;;;;;;4.53;3.70;;;22.10;1.00;;;;;;4955245;28;20360;-62
2022/04/20 12:44:46;;;;;;;8.10;4.63;;;21.60;1.00;;;;;;4954863;28;20337;-62
2022/04/20 12:47:33;;;;;;;4.60;3.35;;;21.10;1.00;;;;;;4954935;28;20196;-62
2022/04/20 12:50:25;;;;;;;3.60;3.30;;;21.00;1.00;;;;;;4954931;28;20685;-62
2022/04/20 12:53:00;;;;;;;4.05;3.65;;;21.00;1.00;;;;;;4955134;28;20575;-62
2022/04/20 13:04:12;;;;;;;4.32;3.38;;;20.80;1.00;;;;;;4914441;29;20189;-61
2022/04/20 13:06:39;;;;;;;5.63;3.75;;;20.30;1.00;;;;;;4914266;29;20644;-61
2022/04/20 13:09:07;;;;;;;6.25;4.00;;;20.20;1.00;;;;;;4914137;29;20224;-61
2022/04/20 13:11:34;;;;;;;5.18;4.18;;;19.80;1.00;;;;;;4914202;29;20663;-61
2022/04/20 13:14:01;;;;;;;3.85;3.55;;;19.90;1.00;;;;;;4914220;29;20219;-61
2022/04/20 13:16:29;;;;;;;4.88;3.70;;;20.00;1.00;;;;;;4914048;29;20204;-61
2022/04/20 13:18:56;;;;;;;16.55;4.95;;;20.20;1.00;;;;;;4914140;29;20308;-61
2022/04/20 13:21:23;;;;;;;8.85;4.68;;;20.10;1.00;;;;;;4913844;29;20242;-61
2022/04/20 13:23:52;;;;;;;6.13;3.90;;;20.00;1.00;;;;;;4913995;29;20287;-61
2022/04/20 13:29:05;;;;;;;8.57;4.40;;;19.80;1.00;;;;;;4913836;29;20198;-61
2022/04/20 13:31:32;;;;;;;5.22;3.78;;;19.60;1.00;;;;;;4913900;29;20272;-61
2022/04/20 13:33:59;;;;;;;6.18;3.67;;;19.40;1.00;;;;;;4932396;29;20219;-61
2022/04/20 13:36:26;;;;;;;4.60;3.60;;;19.60;1.00;;;;;;4953985;28;20199;-60
2022/04/20 13:38:53;;;;;;;5.23;3.90;;;19.50;1.00;;;;;;4954693;28;20208;-61
2022/04/20 13:41:22;;;;;;;7.30;3.80;;;19.30;1.00;;;;;;4954635;28;20587;-61
2022/04/20 13:43:49;;;;;;;3.33;3.00;;;19.30;1.00;;;;;;4954480;28;20565;-61
2022/04/20 13:46:16;;;;;;;5.20;3.30;;;19.10;1.00;;;;;;4954555;28;20195;-63
2022/04/20 13:48:43;;;;;;;4.37;3.67;;;19.10;1.00;;;;;;4954338;28;20203;-61
2022/04/20 13:51:10;;;;;;;5.53;3.30;;;19.00;1.00;;;;;;4954599;28;20199;-62